Time;durP1;ratioP1;P1;durP2;ratioP2;P2;SDS_P1;SDS_P2;PMS_P1;PMS_P2;Temp;Humidity;BMP_temperature;BMP_pressure;BME280_temperature;BME280_humidity;BME280_pressure;Samples;Min_cycle;Max_cycle;Signal;HPM_P1;HPM_P2
2023/07/05 00:02:14;;;;;;;4.80;3.08;;;;;;;15.67;92.87;100386.88;4991482;28;20022;-94
2023/07/05 00:04:51;;;;;;;5.80;3.45;;;;;;;15.67;92.94;100380.81;5001151;28;20037;-95
2023/07/05 00:07:19;;;;;;;5.88;3.00;;;;;;;15.65;93.66;100366.94;4998876;28;20033;-95
2023/07/05 00:09:44;;;;;;;5.05;2.88;;;;;;;15.63;93.67;100367.88;5000568;28;20022;-94
2023/07/05 00:12:21;;;;;;;4.82;2.67;;;;;;;15.63;93.63;100360.00;4997203;28;20037;-95
2023/07/05 00:14:47;;;;;;;6.15;2.88;;;;;;;15.62;94.34;100341.75;4999502;28;20072;-95
2023/07/05 00:17:12;;;;;;;4.55;2.55;;;;;;;15.59;93.64;100337.50;5001856;28;20382;-96
2023/07/05 00:19:45;;;;;;;4.93;2.25;;;;;;;15.59;93.71;100324.38;5002328;28;20053;-96
2023/07/05 00:22:10;;;;;;;3.53;2.10;;;;;;;15.58;94.02;100314.81;5001803;28;20081;-95
2023/07/05 00:24:35;;;;;;;4.60;2.50;;;;;;;15.57;93.94;100307.88;5001252;28;20497;-95
2023/07/05 00:27:03;;;;;;;3.60;2.30;;;;;;;15.56;94.16;100305.34;5000878;28;20036;-95
2023/07/05 00:29:31;;;;;;;4.00;2.05;;;;;;;15.55;94.79;100307.13;4979904;28;20022;-94
2023/07/05 00:31:59;;;;;;;5.13;2.10;;;;;;;15.52;95.31;100275.84;4999613;28;20032;-95
2023/07/05 00:34:40;;;;;;;4.45;2.08;;;;;;;15.51;95.09;100261.06;5009471;28;20030;-95
2023/07/05 00:37:06;;;;;;;3.47;2.17;;;;;;;15.51;94.78;100261.06;5005653;28;20025;-96
2023/07/05 00:39:31;;;;;;;5.63;2.00;;;;;;;15.51;95.05;100255.81;5000540;28;20024;-96
2023/07/05 00:41:56;;;;;;;3.67;1.80;;;;;;;15.53;95.03;100261.81;4976879;28;20045;-94
2023/07/05 00:45:13;;;;;;;;;;;;;;;;;;;;;
2023/07/05 00:47:42;;;;;;;2.72;1.73;;;;;;;15.50;95.12;100232.28;5023060;23;20124;-93
2023/07/05 00:50:24;;;;;;;3.00;1.70;;;;;;;15.47;94.70;100212.34;5011625;28;20122;-95
2023/07/05 00:52:51;;;;;;;3.58;2.10;;;;;;;15.47;95.16;100202.69;5011752;28;20029;-95
2023/07/05 00:55:20;;;;;;;3.33;1.98;;;;;;;15.46;95.28;100203.63;5012495;28;20089;-95
2023/07/05 00:57:51;;;;;;;3.38;1.90;;;;;;;15.45;95.10;100219.44;5013346;28;20048;-95
2023/07/05 01:00:52;;;;;;;3.13;1.98;;;;;;;15.43;95.51;100211.69;5017040;28;20036;-95
2023/07/05 01:03:22;;;;;;;2.97;2.10;;;;;;;15.43;95.12;100210.81;5013297;28;20038;-96
2023/07/05 01:05:55;;;;;;;3.13;2.10;;;;;;;15.42;95.51;100214.38;5008906;28;20025;-94
2023/07/05 01:08:21;;;;;;;3.65;2.00;;;;;;;15.38;95.54;100211.09;5009270;28;20041;-96
2023/07/05 01:10:54;;;;;;;3.72;1.90;;;;;;;15.38;95.76;100202.34;5009047;28;20022;-94
2023/07/05 01:13:36;;;;;;;4.20;2.20;;;;;;;15.38;94.62;100211.09;5014869;28;20042;-94
2023/07/05 01:16:21;;;;;;;3.58;1.77;;;;;;;15.38;95.79;100199.72;4991631;28;20493;-95
2023/07/05 01:19:18;;;;;;;3.13;2.08;;;;;;;15.37;95.59;100195.44;5011489;28;20060;-95
2023/07/05 01:21:52;;;;;;;3.75;2.20;;;;;;;15.38;95.78;100197.13;4998441;28;20061;-93
2023/07/05 01:24:45;;;;;;;3.63;2.00;;;;;;;15.37;95.69;100196.28;5023228;28;20081;-96
2023/07/05 01:27:49;;;;;;;3.38;2.08;;;;;;;15.37;94.40;100195.44;5012565;28;20029;-95
2023/07/05 01:30:27;;;;;;;2.83;2.00;;;;;;;15.39;95.92;100189.19;5013497;28;20026;-96
2023/07/05 01:33:27;;;;;;;3.83;1.95;;;;;;;15.40;95.93;100185.63;5012919;28;20032;-95
2023/07/05 01:35:57;;;;;;;3.67;1.98;;;;;;;15.44;95.67;100175.81;5012142;28;20741;-95
2023/07/05 01:38:25;;;;;;;3.20;2.05;;;;;;;15.45;95.73;100188.00;5016184;28;20469;-95
2023/07/05 01:41:11;;;;;;;3.38;1.65;;;;;;;15.47;94.86;100180.88;5019200;28;20389;-95
2023/07/05 01:43:50;;;;;;;3.58;2.03;;;;;;;15.50;95.33;100183.34;5018743;28;20037;-94
2023/07/05 01:46:41;;;;;;;3.58;2.10;;;;;;;15.52;95.33;100184.09;5018480;28;20042;-95
2023/07/05 01:53:07;;;;;;;2.88;1.75;;;;;;;15.52;94.78;100188.47;4936224;29;20286;-96
2023/07/05 01:56:04;;;;;;;2.97;1.80;;;;;;;15.52;94.66;100178.00;4964213;29;20031;-95
2023/07/05 01:58:44;;;;;;;3.05;1.83;;;;;;;15.53;94.51;100177.94;4979792;28;20041;-95
2023/07/05 02:01:13;;;;;;;2.20;1.70;;;;;;;15.53;95.03;100184.94;5012997;28;20021;-94
2023/07/05 02:03:41;;;;;;;3.00;1.70;;;;;;;15.52;95.06;100178.84;5014365;28;20064;-95
2023/07/05 02:07:54;;;;;;;;;;;;;;;;;;;;;
2023/07/05 02:25:04;;;;;;;3.33;1.70;;;;;;;15.44;92.34;100236.09;5748063;23;20042;-95
2023/07/05 02:31:22;;;;;;;2.63;1.52;;;;;;;15.40;87.74;100274.75;4970480;29;20040;-95
2023/07/05 02:34:30;;;;;;;2.67;1.48;;;;;;;15.32;86.41;100276.94;4893617;29;20037;-93
2023/07/05 02:37:04;;;;;;;3.88;1.40;;;;;;;15.22;83.49;100276.59;4912522;29;20055;-95
2023/07/05 02:39:55;;;;;;;3.75;1.30;;;;;;;15.09;82.69;100296.53;4912899;29;20029;-93
2023/07/05 02:42:32;;;;;;;2.88;1.40;;;;;;;15.00;82.64;100295.25;4908278;29;20044;-94
2023/07/05 02:45:42;;;;;;;2.92;1.50;;;;;;;14.95;82.81;100300.72;4992706;28;20046;-94
2023/07/05 02:53:37;;;;;;;3.25;1.60;;;;;;;14.80;82.10;100323.31;5472247;23;20045;-92
2023/07/05 03:01:45;;;;;;;4.85;1.83;;;;;;;14.52;80.47;100305.53;4944771;26;20098;-91
2023/07/05 03:07:09;;;;;;;2.63;1.42;;;;;;;14.33;80.81;100305.63;4897562;23;20050;-94
2023/07/05 03:09:48;;;;;;;;;;;;;;;;;;;;;
2023/07/05 03:12:54;;;;;;;4.20;1.90;;;;;;;14.21;81.66;100307.06;4994835;28;20054;-93
2023/07/05 03:15:20;;;;;;;3.60;1.70;;;;;;;14.11;81.29;100299.69;5150978;23;20750;-90
2023/07/05 03:18:09;;;;;;;4.97;1.98;;;;;;;14.10;80.79;100303.22;4987566;28;20090;-94
2023/07/05 03:21:06;;;;;;;;;;;;;;;;;;;;;
2023/07/05 03:24:11;;;;;;;3.38;1.98;;;;;;;14.03;81.06;100309.69;4916091;29;20064;-93
2023/07/05 03:26:43;;;;;;;3.90;1.90;;;;;;;13.93;81.07;100305.81;4887997;29;20033;-91
2023/07/05 03:31:49;;;;;;;3.40;1.92;;;;;;;13.87;81.04;100324.41;5018635;28;20040;-94
2023/07/05 03:34:21;;;;;;;5.00;2.10;;;;;;;13.83;80.83;100312.44;5019311;28;20037;-94
2023/07/05 03:36:48;;;;;;;4.32;2.50;;;;;;;13.81;80.55;100318.59;5014378;28;20101;-93
2023/07/05 03:39:45;;;;;;;;;;;;;;;;;;;;;
2023/07/05 03:44:50;;;;;;;4.97;2.15;;;;;;;13.72;81.25;100315.56;5162551;23;20042;-93
2023/07/05 03:48:10;;;;;;;;;;;;;;;;;;;;;
2023/07/05 03:50:40;;;;;;;4.85;2.22;;;;;;;13.71;81.02;100325.16;5038501;28;20057;-96
2023/07/05 03:53:24;;;;;;;;;;;;;;;;;;;;;
2023/07/05 04:04:47;;;;;;;5.32;2.22;;;;;;;13.72;80.56;100318.16;5042630;28;20048;-92
2023/07/05 04:13:22;;;;;;;4.07;2.33;;;;;;;13.64;81.48;100300.22;5018396;28;20046;-94
2023/07/05 04:25:35;;;;;;;4.35;2.30;;;;;;;13.68;80.60;100325.28;5839303;23;20021;-94
2023/07/05 04:28:07;;;;;;;6.43;2.70;;;;;;;13.65;80.80;100330.69;4988577;28;20025;-96
2023/07/05 04:31:15;;;;;;;;;;;;;;;;;;;;;
2023/07/05 04:33:47;;;;;;;5.93;2.45;;;;;;;13.63;80.85;100309.00;4946852;28;20066;-94
2023/07/05 04:36:19;;;;;;;4.22;2.45;;;;;;;13.62;80.84;100322.97;4981510;28;20030;-95
2023/07/05 04:38:44;;;;;;;;;;;;;;;13.70;80.45;100330.47;4985901;28;20031;-95
2023/07/05 04:41:30;;;;;;;4.85;2.65;;;;;;;13.69;80.18;100332.22;4979405;28;19902;-93
2023/07/05 04:44:15;;;;;;;5.10;2.40;;;;;;;13.72;79.52;100329.47;4917040;29;20049;-93
2023/07/05 04:46:43;;;;;;;6.10;2.78;;;;;;;13.72;79.52;100319.00;4917055;29;20071;-95
2023/07/05 04:49:45;;;;;;;;;;;;;;;;;;;;;
2023/07/05 04:52:13;;;;;;;5.45;2.83;;;;;;;13.74;78.75;100319.78;4986725;28;20046;-94
2023/07/05 04:55:13;;;;;;;;;;;;;;;;;;;;;
2023/07/05 04:58:02;;;;;;;;;;;;;;;;;;;;;
2023/07/05 05:04:29;;;;;;;6.38;2.95;;;;;;;13.78;78.06;100318.72;4940040;29;20055;-94
2023/07/05 05:14:04;;;;;;;4.35;2.58;;;;;;;13.80;78.15;100321.25;5127995;23;20081;-94
2023/07/05 05:16:28;;;;;;;5.00;2.75;;;;;;;13.81;78.08;100318.59;5009121;28;20035;-95
2023/07/05 05:18:53;;;;;;;4.10;2.35;;;;;;;13.82;77.68;100322.03;5007289;28;20027;-94
2023/07/05 05:22:06;;;;;;;6.25;2.80;;;;;;;13.90;77.21;100332.13;5001894;28;20042;-91
2023/07/05 05:25:20;;;;;;;;;;;;;;;;;;;;;
2023/07/05 05:32:29;;;;;;;;;;;;;;;;;;;;;
2023/07/05 05:35:28;;;;;;;;;;;;;;;;;;;;;
2023/07/05 05:38:14;;;;;;;4.70;2.20;;;;;;;13.90;74.62;100339.97;5023394;28;20066;-94
2023/07/05 05:41:14;;;;;;;4.72;2.50;;;;;;;13.84;74.52;100333.25;5003018;28;20052;-93
2023/07/05 05:44:17;;;;;;;6.68;2.40;;;;;;;13.82;74.49;100332.47;5018069;28;20086;-96
2023/07/05 05:46:45;;;;;;;8.93;2.72;;;;;;;13.79;74.85;100330.00;5104689;23;20069;-93
2023/07/05 05:49:29;;;;;;;7.55;2.72;;;;;;;13.75;75.09;100334.53;5041733;28;20052;-92
2023/07/05 05:51:54;;;;;;;9.23;2.33;;;;;;;13.73;75.06;100331.16;5035194;28;20010;-94
2023/07/05 05:54:32;;;;;;;10.65;2.58;;;;;;;13.76;74.73;100336.25;5044165;28;20006;-93
2023/07/05 05:56:57;;;;;;;6.45;2.60;;;;;;;13.73;74.87;100331.16;5029297;28;20006;-95
2023/07/05 05:59:48;;;;;;;8.90;2.67;;;;;;;13.72;75.08;100342.53;5011038;28;20049;-95
2023/07/05 06:02:14;;;;;;;7.43;2.30;;;;;;;13.71;75.48;100345.22;5007258;28;20036;-96
2023/07/05 06:04:39;;;;;;;6.45;2.45;;;;;;;13.73;75.04;100351.22;5017844;28;20340;-92
2023/07/05 06:07:16;;;;;;;6.47;2.38;;;;;;;13.72;74.86;100350.38;5008819;28;20030;-95
2023/07/05 06:09:50;;;;;;;9.43;2.53;;;;;;;13.75;74.83;100367.69;5015954;28;20054;-95
2023/07/05 06:12:22;;;;;;;8.75;2.50;;;;;;;13.75;74.55;100359.84;5018024;28;20089;-94
2023/07/05 06:15:23;;;;;;;7.55;2.30;;;;;;;13.76;74.76;100366.75;5020072;28;20029;-94
2023/07/05 06:17:49;;;;;;;9.10;2.75;;;;;;;13.80;74.48;100378.75;4998649;28;20102;-93
2023/07/05 06:20:33;;;;;;;5.22;2.42;;;;;;;13.80;74.52;100366.56;5019805;28;20093;-94
2023/07/05 06:31:57;;;;;;;7.40;2.53;;;;;;;13.81;75.36;100386.56;5528589;23;20046;-94
2023/07/05 06:35:09;;;;;;;3.38;1.98;;;;;;;13.83;75.36;100385.63;5036105;28;20053;-93
2023/07/05 06:37:37;;;;;;;4.50;2.17;;;;;;;13.89;74.67;100395.78;5019205;28;20097;-94
2023/07/05 06:40:43;;;;;;;3.65;2.05;;;;;;;13.94;74.78;100394.66;5014109;28;20022;-94
2023/07/05 06:43:34;;;;;;;4.78;2.10;;;;;;;14.06;74.23;100393.22;5018889;28;20046;-94
2023/07/05 06:45:59;;;;;;;4.68;2.03;;;;;;;14.05;74.49;100398.53;5016047;28;20029;-95
2023/07/05 06:48:25;;;;;;;5.85;2.20;;;;;;;14.14;73.55;100413.78;5021858;28;20029;-93
2023/07/05 06:51:21;;;;;;;5.18;1.90;;;;;;;14.16;73.18;100400.66;5026331;28;20026;-91
2023/07/05 06:53:50;;;;;;;4.53;1.90;;;;;;;14.16;72.27;100406.72;5023780;28;20037;-92
2023/07/05 07:03:33;;;;;;;4.43;2.10;;;;;;;14.44;71.02;100426.31;4846990;29;20043;-94
2023/07/05 07:06:18;;;;;;;;;;;;;;;;;;;;;
2023/07/05 07:08:49;;;;;;;3.25;1.80;;;;;;;14.47;69.40;100433.19;4991881;28;20425;-94
2023/07/05 07:11:27;;;;;;;;;;;;;;;;;;;;;
2023/07/05 07:16:43;;;;;;;4.97;1.85;;;;;;;14.67;69.72;100443.53;5017619;28;20061;-95
2023/07/05 07:19:08;;;;;;;4.50;1.70;;;;;;;14.72;68.71;100457.25;5014918;28;20080;-95
2023/07/05 07:21:39;;;;;;;4.20;1.70;;;;;;;14.63;67.76;100460.31;5024093;28;20025;-92
2023/07/05 07:24:30;;;;;;;5.43;1.98;;;;;;;14.51;69.08;100458.28;5028411;28;20069;-95
2023/07/05 07:27:27;;;;;;;3.67;1.70;;;;;;;14.53;69.40;100482.59;5019645;28;20030;-95
2023/07/05 07:29:55;;;;;;;3.35;1.60;;;;;;;14.61;68.82;100470.00;5017717;28;20420;-96
2023/07/05 07:32:30;;;;;;;3.95;1.45;;;;;;;14.68;68.28;100495.00;5021014;28;20025;-94
2023/07/05 07:34:55;;;;;;;3.50;1.75;;;;;;;14.71;68.55;100484.38;5024438;28;20026;-94
2023/07/05 07:37:21;;;;;;;4.57;1.75;;;;;;;14.77;68.39;100485.84;5015136;28;20040;-94
2023/07/05 07:39:47;;;;;;;3.70;1.92;;;;;;;14.81;68.92;100495.22;5007694;28;20023;-96
2023/07/05 07:42:13;;;;;;;3.15;1.70;;;;;;;14.79;69.59;100510.16;5015655;28;20026;-94
2023/07/05 07:44:38;;;;;;;3.47;1.50;;;;;;;14.69;70.31;100546.41;5005703;28;20029;-91
2023/07/05 07:47:04;;;;;;;3.80;1.85;;;;;;;14.55;72.71;100520.88;5002899;28;20048;-94
2023/07/05 07:49:30;;;;;;;4.32;1.80;;;;;;;14.36;73.21;100533.97;5004631;28;20036;-95
2023/07/05 07:51:55;;;;;;;3.30;1.80;;;;;;;14.23;74.61;100543.31;5008014;28;20030;-95
2023/07/05 07:54:26;;;;;;;3.75;1.77;;;;;;;14.16;74.33;100547.16;5005433;28;20029;-94
2023/07/05 07:56:59;;;;;;;4.63;1.80;;;;;;;14.04;76.69;100541.53;5006413;28;20034;-95
2023/07/05 07:59:27;;;;;;;4.85;1.80;;;;;;;14.02;76.59;100543.38;5004668;28;20026;-94
2023/07/05 08:01:52;;;;;;;3.45;1.90;;;;;;;14.01;75.92;100546.06;5002974;28;20144;-93
2023/07/05 08:04:18;;;;;;;4.32;2.00;;;;;;;13.94;77.01;100548.13;5006259;28;20194;-94
2023/07/05 08:06:50;;;;;;;4.32;2.00;;;;;;;13.94;76.27;100555.97;5008606;28;20053;-94
2023/07/05 08:09:21;;;;;;;5.60;2.08;;;;;;;13.99;76.15;100548.75;5009711;28;20404;-92
2023/07/05 08:11:46;;;;;;;4.32;2.03;;;;;;;14.01;76.25;100549.53;5007833;28;20033;-94
2023/07/05 08:14:13;;;;;;;3.10;2.00;;;;;;;14.03;78.57;100539.84;5003968;28;20026;-95
2023/07/05 08:16:40;;;;;;;3.95;2.10;;;;;;;14.04;77.04;100544.16;5005027;28;20084;-93
2023/07/05 08:19:05;;;;;;;3.80;1.92;;;;;;;14.03;77.85;100549.47;5006332;28;20025;-92
2023/07/05 08:24:27;;;;;;;5.13;2.08;;;;;;;14.19;79.25;100560.94;5167611;23;20062;-93
2023/07/05 08:26:53;;;;;;;4.35;1.90;;;;;;;14.22;77.39;100557.31;4996144;28;20030;-88
2023/07/05 08:29:19;;;;;;;5.72;2.20;;;;;;;14.25;77.19;100572.88;4989586;28;20030;-95
2023/07/05 08:31:49;;;;;;;4.50;1.85;;;;;;;14.26;76.40;100574.59;4970455;28;20073;-95
2023/07/05 08:34:15;;;;;;;5.22;1.92;;;;;;;14.34;75.97;100582.09;4989228;28;20064;-92
2023/07/05 08:36:42;;;;;;;3.38;2.08;;;;;;;14.44;76.87;100569.44;4992987;28;20085;-92
2023/07/05 08:39:08;;;;;;;6.82;2.80;;;;;;;14.57;75.98;100570.53;4988018;28;20022;-94
2023/07/05 08:41:51;;;;;;;4.70;2.47;;;;;;;14.68;75.52;100563.09;4991930;28;20113;-93
2023/07/05 08:44:44;;;;;;;4.25;2.25;;;;;;;14.87;74.82;100570.03;4988348;28;20027;-93
2023/07/05 08:47:12;;;;;;;5.20;2.53;;;;;;;15.03;73.76;100585.88;4997898;28;20022;-93
2023/07/05 08:49:45;;;;;;;4.32;2.45;;;;;;;15.15;72.95;100584.44;4986545;28;20090;-93
2023/07/05 08:52:21;;;;;;;4.82;2.63;;;;;;;15.24;72.57;100604.94;4986103;28;20027;-93
2023/07/05 08:54:53;;;;;;;5.05;2.70;;;;;;;15.36;71.88;100594.78;4988614;28;20117;-92
2023/07/05 08:57:28;;;;;;;6.40;2.55;;;;;;;15.43;71.62;100597.00;4990167;28;20208;-91
2023/07/05 08:59:57;;;;;;;7.38;2.80;;;;;;;15.46;70.36;100620.44;4987471;28;20026;-94
2023/07/05 09:02:23;;;;;;;5.40;2.72;;;;;;;15.47;69.73;100622.13;4991370;28;20034;-93
2023/07/05 09:04:49;;;;;;;5.40;2.65;;;;;;;15.52;70.69;100640.28;4988188;28;20577;-95
2023/07/05 09:07:37;;;;;;;5.35;2.88;;;;;;;15.68;70.26;100634.25;4970444;28;20026;-92
2023/07/05 09:10:15;;;;;;;6.30;2.90;;;;;;;15.78;68.29;100635.47;4984748;28;20030;-93
2023/07/05 09:12:49;;;;;;;10.93;2.90;;;;;;;15.85;68.70;100657.00;4995921;28;20037;-91
2023/07/05 09:15:34;;;;;;;6.35;2.80;;;;;;;15.92;68.84;100663.66;4998823;28;20034;-94
2023/07/05 09:18:18;;;;;;;5.50;2.88;;;;;;;15.91;68.71;100654.94;4991038;28;20121;-95
2023/07/05 09:21:13;;;;;;;8.70;3.15;;;;;;;15.89;68.85;100635.78;4995877;28;20027;-93
2023/07/05 09:23:48;;;;;;;7.80;2.63;;;;;;;16.02;67.91;100656.19;4991807;28;20006;-89
2023/07/05 09:26:26;;;;;;;5.07;2.42;;;;;;;16.09;66.98;100644.41;5001834;28;20223;-95
2023/07/05 09:29:13;;;;;;;6.07;2.85;;;;;;;16.15;66.65;100664.25;4991154;28;20030;-93
2023/07/05 09:31:39;;;;;;;4.53;2.20;;;;;;;16.27;66.02;100673.25;4985024;28;20035;-91
2023/07/05 09:34:37;;;;;;;8.45;2.50;;;;;;;16.38;65.69;100668.31;4987663;28;20022;-92
2023/07/05 09:37:29;;;;;;;7.97;2.47;;;;;;;16.47;65.88;100665.19;4993575;28;20116;-94
2023/07/05 09:40:09;;;;;;;5.45;2.40;;;;;;;16.50;64.57;100691.28;4986411;28;20045;-92
2023/07/05 09:43:00;;;;;;;6.07;1.95;;;;;;;16.43;63.85;100712.69;4986099;28;20023;-94
2023/07/05 09:45:26;;;;;;;5.22;1.98;;;;;;;16.51;62.74;100705.25;4993669;28;20110;-94
2023/07/05 09:47:59;;;;;;;6.82;2.10;;;;;;;16.60;62.52;100711.78;4990533;28;20034;-94
2023/07/05 09:53:24;;;;;;;4.38;2.20;;;;;;;16.81;62.38;100710.63;4209479;26;20069;-94
2023/07/05 09:58:24;;;;;;;4.38;1.90;;;;;;;16.88;60.86;100715.56;5017556;28;20050;-93
2023/07/05 10:01:21;;;;;;;4.35;1.70;;;;;;;16.93;60.92;100729.28;5020861;28;20022;-92
2023/07/05 10:03:57;;;;;;;5.57;1.50;;;;;;;16.96;60.64;100737.03;4989465;28;20045;-93
2023/07/05 10:06:42;;;;;;;3.65;1.50;;;;;;;16.96;59.48;100730.03;5172835;23;20050;-93
2023/07/05 10:10:01;;;;;;;5.32;1.45;;;;;;;17.01;59.48;100742.91;5019425;23;20033;-94
2023/07/05 10:12:32;;;;;;;5.22;1.50;;;;;;;17.04;56.18;100726.97;4937977;28;20078;-94
2023/07/05 10:14:57;;;;;;;2.97;1.20;;;;;;;17.09;57.11;100738.06;5006396;28;20057;-95
2023/07/05 10:17:44;;;;;;;4.78;1.10;;;;;;;17.20;57.73;100736.63;5003294;28;20050;-94
2023/07/05 10:20:37;;;;;;;4.10;1.30;;;;;;;17.35;57.99;100748.94;5003266;28;20046;-93
2023/07/05 10:26:02;;;;;;;4.05;1.45;;;;;;;17.32;56.62;100770.13;5025031;23;20408;-96
2023/07/05 10:28:37;;;;;;;3.25;0.90;;;;;;;17.17;56.15;100766.56;5132326;23;20097;-93
2023/07/05 10:33:47;;;;;;;4.68;1.10;;;;;;;17.03;57.26;100793.59;5259180;23;20039;-93
2023/07/05 10:36:33;;;;;;;;;;;;;;;;;;;;;
2023/07/05 10:39:04;;;;;;;5.45;1.20;;;;;;;17.21;56.09;100789.13;5138054;23;20114;-94
2023/07/05 10:41:40;;;;;;;5.85;1.60;;;;;;;17.34;54.85;100798.97;5005163;28;20041;-92
2023/07/05 10:44:40;;;;;;;4.15;0.90;;;;;;;17.34;54.42;100799.81;5032072;28;20013;-95
2023/07/05 10:47:18;;;;;;;5.68;1.13;;;;;;;17.37;54.08;100822.47;5026698;28;20069;-94
2023/07/05 10:49:47;;;;;;;4.72;1.15;;;;;;;17.41;52.58;100808.22;5008433;28;20030;-93
2023/07/05 10:52:16;;;;;;;5.28;1.20;;;;;;;17.49;52.78;100813.06;5009571;28;20029;-92
2023/07/05 10:55:07;;;;;;;4.18;1.13;;;;;;;17.52;53.83;100815.53;5012134;28;20117;-94
2023/07/05 11:01:14;;;;;;;4.63;1.20;;;;;;;17.67;52.82;100826.97;5018803;28;20069;-94
2023/07/05 11:03:51;;;;;;;3.17;1.00;;;;;;;17.73;51.63;100816.09;4939615;29;20067;-94
2023/07/05 11:07:06;;;;;;;4.05;0.98;;;;;;;17.86;52.44;100822.34;4921833;29;20039;-92
2023/07/05 11:09:35;;;;;;;4.13;1.10;;;;;;;18.03;50.93;100834.59;5085585;23;20054;-93
2023/07/05 11:15:07;;;;;;;5.32;0.82;;;;;;;18.13;50.88;100831.41;4979403;28;20452;-95
2023/07/05 11:17:38;;;;;;;2.67;1.25;;;;;;;18.18;49.53;100839.91;4986072;28;20026;-94
2023/07/05 11:20:35;;;;;;;2.63;1.10;;;;;;;18.24;51.62;100833.44;4983577;28;20034;-93
2023/07/05 11:23:00;;;;;;;1.52;0.73;;;;;;;18.23;48.96;100842.28;4983447;28;20053;-94
2023/07/05 11:25:54;;;;;;;6.55;1.20;;;;;;;18.25;50.11;100862.31;4984505;28;20037;-90
2023/07/05 11:28:43;;;;;;;2.47;0.90;;;;;;;18.23;49.29;100869.47;4983097;28;20030;-91
2023/07/05 11:31:29;;;;;;;7.32;0.98;;;;;;;18.23;47.50;100851.03;4981777;28;20082;-92
2023/07/05 11:34:23;;;;;;;3.90;0.90;;;;;;;18.22;49.30;100867.78;5001991;28;22029;-94
2023/07/05 11:36:49;;;;;;;5.53;0.80;;;;;;;18.26;49.30;100864.03;4988408;28;20034;-93
2023/07/05 11:39:52;;;;;;;4.30;1.02;;;;;;;18.41;49.84;100861.44;5008644;28;20673;-93
2023/07/05 11:42:19;;;;;;;5.30;1.15;;;;;;;18.49;48.55;100864.44;4910575;29;20034;-93
2023/07/05 11:45:03;;;;;;;2.97;1.42;;;;;;;18.56;50.60;100867.56;5010202;23;20109;-96
2023/07/05 11:47:34;;;;;;;6.88;1.60;;;;;;;18.69;49.62;100865.06;5163751;23;20042;-95
2023/07/05 11:50:13;;;;;;;4.35;1.02;;;;;;;18.78;49.54;100886.44;5121640;23;20057;-93
2023/07/05 11:52:58;;;;;;;4.25;0.95;;;;;;;18.79;47.52;100884.63;5291972;23;20045;-87
2023/07/05 11:58:53;;;;;;;3.30;1.23;;;;;;;18.88;45.78;100889.38;5168742;23;20050;-94
2023/07/05 12:04:32;;;;;;;4.57;1.00;;;;;;;18.96;45.79;100900.31;5008990;28;20041;-94
2023/07/05 12:07:02;;;;;;;3.65;0.88;;;;;;;19.00;45.43;100902.78;5007976;28;20045;-94
2023/07/05 12:09:36;;;;;;;4.28;1.13;;;;;;;19.03;46.89;100913.16;4990620;28;20560;-93
2023/07/05 12:12:20;;;;;;;5.40;1.30;;;;;;;19.04;46.59;100912.22;4992582;28;20369;-93
2023/07/05 12:14:46;;;;;;;4.05;1.00;;;;;;;19.10;46.08;100909.22;5020405;28;20140;-92
2023/07/05 12:17:44;;;;;;;3.58;1.13;;;;;;;19.19;46.55;100927.09;5026914;28;20047;-93
2023/07/05 12:20:32;;;;;;;;;;;;;;;;;;;;;
2023/07/05 12:23:01;;;;;;;7.20;1.13;;;;;;;19.23;44.92;100923.34;5018409;28;20081;-93
2023/07/05 12:25:27;;;;;;;4.20;1.13;;;;;;;19.29;45.81;100918.63;5018667;28;20041;-91
2023/07/05 12:28:15;;;;;;;1.90;0.82;;;;;;;19.41;46.73;100923.97;5013758;28;20093;-94
2023/07/05 12:30:41;;;;;;;1.25;0.70;;;;;;;19.45;44.11;100935.22;4970483;28;20049;-94
2023/07/05 12:33:27;;;;;;;4.65;0.85;;;;;;;19.42;45.65;100933.59;5003372;28;20034;-96
2023/07/05 12:36:13;;;;;;;3.47;1.08;;;;;;;19.45;45.75;100940.50;5006734;28;20108;-96
2023/07/05 12:38:41;;;;;;;2.90;1.00;;;;;;;19.50;42.54;100930.47;4999641;28;20041;-93
2023/07/05 12:41:16;;;;;;;4.53;1.00;;;;;;;19.46;44.70;100949.25;5000384;28;20021;-95
2023/07/05 12:43:44;;;;;;;3.53;1.00;;;;;;;19.42;43.38;100938.88;4979539;28;20469;-95
2023/07/05 12:46:20;;;;;;;3.10;1.02;;;;;;;19.50;44.50;100941.03;5000047;28;20626;-94
2023/07/05 12:48:45;;;;;;;11.02;1.00;;;;;;;19.64;43.02;100944.63;5000569;28;20424;-94
2023/07/05 12:51:19;;;;;;;4.47;1.10;;;;;;;19.70;42.81;100957.44;5001046;28;20076;-94
2023/07/05 12:53:56;;;;;;;4.35;1.10;;;;;;;19.75;42.61;100942.16;5001539;28;20480;-93
2023/07/05 12:56:31;;;;;;;4.45;0.93;;;;;;;19.79;42.99;100943.66;5001289;28;20030;-96
2023/07/05 12:59:03;;;;;;;5.55;1.02;;;;;;;19.80;42.13;100953.28;5003472;28;20029;-94
2023/07/05 13:01:32;;;;;;;4.45;0.90;;;;;;;19.91;42.86;100963.16;5001334;28;20111;-93
2023/07/05 13:04:08;;;;;;;5.20;1.23;;;;;;;19.98;41.90;100966.28;5001202;28;20030;-95
2023/07/05 13:06:35;;;;;;;3.88;1.10;;;;;;;20.02;41.62;100968.63;5000015;28;20042;-94
2023/07/05 13:09:01;;;;;;;3.33;1.00;;;;;;;20.05;41.30;100972.03;5004062;28;20041;-95
2023/07/05 13:11:26;;;;;;;3.92;1.10;;;;;;;20.06;42.73;100971.91;5001228;28;20030;-93
2023/07/05 13:14:04;;;;;;;1.70;1.02;;;;;;;20.07;42.20;100970.97;5001113;28;20033;-92
2023/07/05 13:16:47;;;;;;;2.55;0.90;;;;;;;20.09;43.16;100973.50;5001848;28;20062;-95
2023/07/05 13:19:13;;;;;;;4.72;1.05;;;;;;;20.10;41.54;100975.19;5004232;28;20033;-95
2023/07/05 13:21:45;;;;;;;2.78;0.80;;;;;;;20.16;42.86;100980.94;5007154;28;20029;-94
2023/07/05 13:24:26;;;;;;;2.35;1.05;;;;;;;20.19;42.43;100985.19;5010970;28;20057;-96
2023/07/05 13:26:52;;;;;;;4.43;1.05;;;;;;;20.19;40.38;100986.97;5109424;23;20102;-94
2023/07/05 13:29:26;;;;;;;2.85;0.98;;;;;;;20.27;41.11;100976.78;4986615;28;20030;-94
2023/07/05 13:31:53;;;;;;;3.47;1.10;;;;;;;20.34;40.81;100988.63;4984295;28;20133;-92
2023/07/05 13:34:30;;;;;;;3.60;1.00;;;;;;;20.40;41.51;100979.47;5002303;28;20034;-94
2023/07/05 13:39:35;;;;;;;4.97;1.00;;;;;;;20.54;39.76;100986.47;5012467;23;20050;-94
2023/07/05 13:42:01;;;;;;;4.07;1.10;;;;;;;20.49;39.20;100991.25;5048571;23;20082;-96
2023/07/05 13:44:28;;;;;;;2.75;1.20;;;;;;;20.45;40.20;100994.06;4998631;28;20022;-94
2023/07/05 13:46:58;;;;;;;5.88;1.00;;;;;;;20.49;40.65;100992.06;5015658;28;20033;-96
2023/07/05 13:50:12;;;;;;;3.10;0.95;;;;;;;20.57;42.50;101002.16;5018094;28;20121;-95
2023/07/05 13:52:58;;;;;;;2.08;0.90;;;;;;;20.49;41.17;100999.16;5016554;28;20050;-90
2023/07/05 13:55:24;;;;;;;2.95;1.20;;;;;;;20.49;40.47;101018.50;5012589;23;20063;-95
2023/07/05 13:57:59;;;;;;;3.03;1.20;;;;;;;20.52;41.38;101028.00;4984485;28;20376;-94
2023/07/05 14:03:33;;;;;;;3.88;1.15;;;;;;;20.25;40.82;101020.94;5364434;23;20089;-95
2023/07/05 14:05:59;;;;;;;3.22;1.00;;;;;;;20.24;41.27;101025.34;4979546;28;20034;-96
2023/07/05 14:08:25;;;;;;;2.40;1.20;;;;;;;20.15;40.63;101018.88;4994108;28;20477;-92
2023/07/05 14:18:43;;;;;;;2.60;1.05;;;;;;;20.16;41.99;101031.13;5303243;23;20820;-91
2023/07/05 14:22:31;;;;;;;2.97;1.10;;;;;;;20.26;42.80;101039.31;4994443;28;20049;-93
2023/07/05 14:25:16;;;;;;;3.35;1.20;;;;;;;20.35;42.47;101037.88;5141128;23;20022;-93
2023/07/05 14:35:36;;;;;;;3.25;1.40;;;;;;;20.70;41.58;101036.56;4954037;28;20078;-93
2023/07/05 14:38:01;;;;;;;3.75;1.20;;;;;;;20.73;40.97;101031.91;4964277;28;20023;-94
2023/07/05 14:40:27;;;;;;;2.42;1.10;;;;;;;20.82;40.05;101040.22;4965470;28;20023;-91
2023/07/05 14:42:55;;;;;;;4.40;1.27;;;;;;;20.80;40.23;101042.13;4970196;28;20027;-91
2023/07/05 14:45:26;;;;;;;3.08;1.17;;;;;;;20.79;40.46;101035.13;4973897;28;20045;-92
2023/07/05 14:50:31;;;;;;;4.82;1.25;;;;;;;20.76;41.95;101044.97;5190101;23;20073;-90
2023/07/05 14:53:01;;;;;;;4.88;1.50;;;;;;;20.71;41.76;101052.31;5091424;23;20502;-90
2023/07/05 14:55:29;;;;;;;5.22;1.50;;;;;;;20.64;42.25;101043.09;4965921;28;20049;-88
2023/07/05 14:57:55;;;;;;;4.63;1.48;;;;;;;20.70;43.01;101055.06;4947200;28;20134;-92
2023/07/05 15:00:23;;;;;;;3.65;1.20;;;;;;;20.79;43.13;101051.00;4950185;29;20047;-92
2023/07/05 15:02:57;;;;;;;3.85;1.40;;;;;;;20.96;42.94;101053.38;4943492;29;20043;-89
2023/07/05 15:05:23;;;;;;;3.45;1.27;;;;;;;21.08;43.11;101051.72;4947561;29;20113;-92
2023/07/05 15:07:48;;;;;;;5.55;1.40;;;;;;;21.21;41.56;101051.72;4948324;28;20191;-90
2023/07/05 15:21:49;;;;;;;;;;;;;;;;;;;;;